Clearfield, Iowa
Current Conditions -  °F | °C
As of 8:55 PM on Friday 19 Dec 2014 (Local Time) from KCSQ Reporting Station
Haze Haze  
Wind Chill: 18°   Ceiling: 300
Heat Index: 28°   Visibility: 2.5mi
Dew Point: 28°   Wind: 12mph
Humidity: 100%   Direction: 190°S
Pressure: 30.18"   Gusts: NA
Location:  40.8°N, 94.48°W
Report Text: KCSQ 200255Z AUTO 19010KT 2 1/2SM BR OVC003 M02/M02 A3018 RMK AO2
Loading
Personal Weather Stations






























Interactive Weather Map New forecast layout! Learn more

10-Day Weather Forecast

Advertisements
Track Severe Weather on mobile